Time;durP1;ratioP1;P1;durP2;ratioP2;P2;SDS_P1;SDS_P2;PMS_P1;PMS_P2;Temp;Humidity;BMP_temperature;BMP_pressure;BME280_temperature;BME280_humidity;BME280_pressure;Samples;Min_cycle;Max_cycle;Signal;HPM_P1;HPM_P2
2023/06/05 00:02:02;;;;;;;6.93;4.70;;;7.80;99.90;7.00;101175;;;;569650;250;24076;-83
2023/06/05 00:04:30;;;;;;;4.27;3.70;;;7.80;99.90;7.00;101178;;;;569450;252;24106;-79
2023/06/05 00:07:00;;;;;;;7.67;4.33;;;7.90;99.90;7.00;101180;;;;571762;247;24046;-82
2023/06/05 00:09:26;;;;;;;7.13;4.73;;;7.80;99.90;7.00;101174;;;;575417;245;24058;-81
2023/06/05 00:11:54;;;;;;;5.57;4.40;;;7.80;99.90;6.90;101175;;;;569554;250;24079;-82
2023/06/05 00:14:22;;;;;;;8.60;5.33;;;7.80;99.90;6.90;101178;;;;569301;252;24168;-80
2023/06/05 00:16:51;;;;;;;7.43;4.80;;;7.80;99.90;6.90;101182;;;;570936;249;24099;-81
2023/06/05 00:19:18;;;;;;;9.73;4.53;;;7.70;99.90;6.80;101176;;;;583731;246;24071;-80
2023/06/05 00:21:46;;;;;;;6.43;4.27;;;7.70;99.90;6.80;101170;;;;568954;250;24112;-81
2023/06/05 00:24:15;;;;;;;6.60;4.57;;;7.60;99.90;6.80;101168;;;;569233;252;24140;-81
2023/06/05 00:26:43;;;;;;;6.60;4.60;;;7.60;99.90;6.80;101169;;;;566114;249;24101;-82
2023/06/05 00:29:14;;;;;;;6.63;3.87;;;7.60;99.90;6.80;101178;;;;583573;245;24204;-79
2023/06/05 00:31:41;;;;;;;7.27;4.73;;;7.60;99.90;6.80;101177;;;;568694;250;24265;-79
2023/06/05 00:34:09;;;;;;;8.80;5.10;;;7.70;99.90;6.80;101176;;;;564513;250;24139;-79
2023/06/05 00:36:40;;;;;;;6.80;4.07;;;7.60;99.90;6.80;101178;;;;568987;252;24091;-81
2023/06/05 00:39:05;;;;;;;8.17;4.50;;;7.70;99.90;6.80;101176;;;;566130;250;24127;-79
2023/06/05 00:41:33;;;;;;;7.70;4.90;;;7.60;99.90;6.80;101178;;;;583694;245;24130;-79
2023/06/05 00:44:01;;;;;;;5.40;4.20;;;7.60;99.90;6.70;101181;;;;569122;250;25123;-82
2023/06/05 00:46:30;;;;;;;10.40;4.23;;;7.60;99.90;6.70;101177;;;;563917;252;35424;-81
2023/06/05 00:48:58;;;;;;;7.62;3.80;;;7.50;99.90;6.70;101182;;;;560979;250;35373;-82
2023/06/05 00:51:25;;;;;;;11.97;4.43;;;8.30;99.90;6.70;101176;;;;569218;250;35327;-82
2023/06/05 00:53:54;;;;;;;13.33;3.97;;;7.50;99.90;6.70;101180;;;;573333;246;24150;-82
2023/06/05 00:56:22;;;;;;;3.27;2.87;;;7.50;99.90;6.60;101179;;;;559489;252;24142;-79
2023/06/05 00:58:50;;;;;;;10.30;3.70;;;7.50;99.90;6.60;101171;;;;568636;249;24107;-81
2023/06/05 01:01:20;;;;;;;3.83;3.30;;;7.50;99.90;6.60;101179;;;;573167;250;24067;-79
2023/06/05 01:03:47;;;;;;;4.37;3.80;;;7.50;99.90;6.60;101178;;;;568746;252;24135;-81
2023/06/05 01:06:16;;;;;;;12.57;3.60;;;7.40;99.90;6.50;101177;;;;567021;249;24133;-79
2023/06/05 01:08:44;;;;;;;8.13;3.92;;;7.40;99.90;6.50;101169;;;;573999;245;35091;-80
2023/06/05 01:11:41;;;;;;;8.17;3.90;;;7.40;99.90;6.50;101177;;;;569888;250;24131;-81
2023/06/05 01:14:27;;;;;;;5.20;3.33;;;7.40;99.90;6.50;101171;;;;561735;250;24109;-82
2023/06/05 01:16:56;;;;;;;5.33;3.87;;;7.30;99.90;6.50;101169;;;;555388;254;24130;-81
2023/06/05 01:19:20;;;;;;;3.33;2.90;;;7.30;99.90;6.50;101178;;;;565013;250;24134;-81
2023/06/05 01:21:48;;;;;;;6.70;4.20;;;7.30;99.90;6.50;101182;;;;563320;250;24107;-81
2023/06/05 01:24:17;;;;;;;9.20;4.70;;;7.30;99.90;6.40;101168;;;;569120;252;24153;-81
2023/06/05 01:26:52;;;;;;;9.23;4.07;;;7.30;99.90;6.40;101179;;;;569847;247;46146;-81
2023/06/05 01:29:15;;;;;;;7.93;3.43;;;7.30;99.90;6.40;101168;;;;578278;248;24100;-80
2023/06/05 01:31:43;;;;;;;3.90;2.93;;;7.30;99.90;6.40;101173;;;;573399;248;24066;-82
2023/06/05 01:34:12;;;;;;;4.40;3.67;;;7.20;99.90;6.30;101170;;;;570602;248;24049;-82
2023/06/05 01:36:38;;;;;;;7.93;4.50;;;7.20;99.90;6.40;101167;;;;570548;248;24084;-82
2023/06/05 01:39:09;;;;;;;8.20;4.50;;;7.20;99.90;6.30;101168;;;;570656;248;24052;-82
2023/06/05 01:41:37;;;;;;;8.90;4.37;;;7.20;99.90;6.30;101167;;;;569853;248;24174;-82
2023/06/05 01:44:02;;;;;;;7.27;4.60;;;7.20;99.90;6.40;101170;;;;569853;248;24111;-79
2023/06/05 01:46:30;;;;;;;6.30;4.67;;;7.10;99.90;6.30;101172;;;;570027;248;24182;-80
2023/06/05 01:49:01;;;;;;;8.53;4.93;;;7.20;99.90;6.30;101168;;;;570425;248;24080;-82
2023/06/05 01:51:26;;;;;;;6.07;4.40;;;7.20;99.90;6.30;101165;;;;570211;248;24079;-82
2023/06/05 01:53:57;;;;;;;6.57;4.50;;;7.10;99.90;6.20;101167;;;;570467;248;24048;-81
2023/06/05 01:56:23;;;;;;;4.63;4.03;;;7.10;99.90;6.20;101162;;;;573604;248;24047;-82
2023/06/05 01:58:52;;;;;;;11.97;5.53;;;7.00;99.90;6.20;101167;;;;570009;248;24105;-81
2023/06/05 02:01:22;;;;;;;7.13;5.17;;;7.00;99.90;6.10;101164;;;;570332;248;24083;-82
2023/06/05 02:03:47;;;;;;;7.57;4.73;;;7.10;99.90;6.10;101165;;;;570182;248;24091;-81
2023/06/05 02:06:18;;;;;;;6.93;5.07;;;7.00;99.90;6.10;101168;;;;570269;248;24105;-79
2023/06/05 02:08:43;;;;;;;7.47;4.77;;;7.00;99.90;6.10;101143;;;;570196;248;24086;-81
2023/06/05 02:11:11;;;;;;;7.77;4.73;;;7.00;99.90;6.10;101153;;;;570367;248;24084;-80
2023/06/05 02:13:43;;;;;;;7.17;5.43;;;7.20;99.90;6.10;101145;;;;570140;248;24062;-81
2023/06/05 02:16:13;;;;;;;8.77;4.97;;;7.00;99.90;6.10;101152;;;;570116;246;24255;-81
2023/06/05 02:18:38;;;;;;;8.77;4.93;;;7.00;99.90;6.10;101156;;;;571314;247;24103;-82
2023/06/05 02:21:10;;;;;;;9.77;5.20;;;7.00;99.90;6.10;101155;;;;571378;247;24131;-81
2023/06/05 02:23:34;;;;;;;10.17;5.13;;;6.90;99.90;6.10;101154;;;;571256;247;24085;-80
2023/06/05 02:26:02;;;;;;;14.40;5.73;;;6.90;99.90;6.10;101152;;;;571114;247;24140;-80
2023/06/05 02:28:30;;;;;;;8.73;5.67;;;6.90;99.90;6.10;101148;;;;570931;247;24044;-80
2023/06/05 02:30:59;;;;;;;8.47;4.80;;;6.90;99.90;6.10;101153;;;;570954;247;24087;-81
2023/06/05 02:33:27;;;;;;;6.00;4.40;;;6.90;99.90;6.10;101148;;;;570929;247;24084;-83
2023/06/05 02:35:56;;;;;;;11.57;5.20;;;7.00;99.90;6.10;101143;;;;570658;248;24113;-81
2023/06/05 02:38:23;;;;;;;8.67;5.20;;;7.00;99.90;6.20;101146;;;;570610;248;24091;-81
2023/06/05 02:40:50;;;;;;;6.37;4.57;;;7.00;99.90;6.20;101152;;;;570755;248;24058;-81
2023/06/05 02:43:19;;;;;;;8.27;5.17;;;7.00;99.90;6.20;101149;;;;570470;248;24165;-81
2023/06/05 02:45:46;;;;;;;8.20;5.73;;;7.10;99.90;6.30;101152;;;;570284;248;24157;-81
2023/06/05 02:48:14;;;;;;;7.90;5.33;;;7.10;99.90;6.40;101152;;;;570512;248;24090;-81
2023/06/05 02:50:42;;;;;;;10.50;5.40;;;7.20;99.90;6.40;101153;;;;565787;248;35165;-81
2023/06/05 02:53:11;;;;;;;7.25;4.78;;;7.30;99.90;6.50;101147;;;;565596;248;35154;-80
2023/06/05 02:55:40;;;;;;;9.80;5.00;;;7.30;99.90;6.60;101149;;;;565579;248;37387;-82
2023/06/05 02:58:06;;;;;;;7.63;5.17;;;7.30;99.90;6.70;101149;;;;565393;248;35152;-80
2023/06/05 03:00:34;;;;;;;5.23;3.27;;;7.40;99.90;6.70;101153;;;;570492;248;24059;-81
2023/06/05 03:03:03;;;;;;;3.43;3.00;;;7.50;99.90;6.80;101161;;;;570446;248;24078;-78
2023/06/05 03:05:30;;;;;;;6.13;3.53;;;7.70;99.90;6.90;101154;;;;570378;248;24082;-82
2023/06/05 03:07:58;;;;;;;5.33;3.87;;;7.70;99.90;7.00;101146;;;;570420;248;24068;-82
2023/06/05 03:10:27;;;;;;;4.40;3.00;;;7.80;99.90;7.10;101146;;;;570459;248;24073;-81
2023/06/05 03:12:53;;;;;;;11.53;3.23;;;7.90;99.90;7.20;101144;;;;570106;248;24102;-80
2023/06/05 03:15:23;;;;;;;4.57;3.60;;;8.00;99.90;7.40;101150;;;;570051;248;24058;-83
2023/06/05 03:17:50;;;;;;;4.87;3.30;;;8.50;99.90;7.90;101153;;;;570203;248;24070;-80
2023/06/05 03:20:19;;;;;;;8.77;4.00;;;8.50;99.90;8.70;101149;;;;570013;248;24055;-82
2023/06/05 03:22:46;;;;;;;7.40;2.97;;;9.30;99.90;9.70;101156;;;;570308;248;24092;-81
2023/06/05 03:25:14;;;;;;;3.30;2.90;;;10.20;99.90;10.60;101164;;;;570511;248;24080;-81
2023/06/05 03:27:42;;;;;;;4.37;2.40;;;12.00;99.90;11.50;101156;;;;570444;248;24064;-81
2023/06/05 03:30:11;;;;;;;4.10;2.93;;;12.00;99.90;12.20;101163;;;;571856;247;24042;-83
2023/06/05 03:32:38;;;;;;;4.27;3.30;;;12.80;99.90;13.00;101162;;;;569800;247;24056;-81
2023/06/05 03:35:07;;;;;;;4.03;2.83;;;13.60;99.90;13.70;101164;;;;571208;247;24084;-81
2023/06/05 03:37:38;;;;;;;4.77;2.87;;;14.30;99.90;14.40;101163;;;;569600;247;24084;-81
2023/06/05 03:40:03;;;;;;;4.97;3.47;;;14.90;99.90;15.00;101169;;;;579246;247;24068;-81
2023/06/05 03:42:30;;;;;;;3.73;3.03;;;15.60;99.90;15.60;101164;;;;570926;247;24121;-80
2023/06/05 03:44:58;;;;;;;5.13;3.03;;;16.30;99.90;16.20;101173;;;;570541;247;24072;-83
2023/06/05 03:47:28;;;;;;;5.07;3.13;;;17.00;99.90;16.80;101170;;;;570544;248;24074;-80
2023/06/05 03:49:55;;;;;;;7.73;4.43;;;18.10;99.90;17.40;101171;;;;570336;248;24060;-81
2023/06/05 03:52:23;;;;;;;12.13;4.73;;;18.10;99.90;18.10;101175;;;;570133;248;24150;-81
2023/06/05 03:54:55;;;;;;;5.03;3.83;;;18.80;99.90;18.70;101186;;;;570408;248;23156;-80
2023/06/05 03:57:21;;;;;;;8.97;4.50;;;19.50;99.90;19.30;101180;;;;570257;243;24087;-80
2023/06/05 03:59:49;;;;;;;8.43;4.43;;;20.10;97.70;19.90;101186;;;;570366;248;24138;-79
2023/06/05 04:02:17;;;;;;;6.93;3.60;;;20.70;95.60;20.60;101187;;;;570243;248;24127;-81
2023/06/05 04:04:45;;;;;;;7.07;3.77;;;21.40;93.30;21.10;101189;;;;570269;248;24085;-81
2023/06/05 04:07:15;;;;;;;9.03;4.03;;;22.00;90.40;21.50;101185;;;;569753;248;23112;-82
2023/06/05 04:09:43;;;;;;;11.73;4.10;;;22.40;84.70;21.90;101181;;;;569996;248;24111;-82
2023/06/05 04:12:11;;;;;;;7.63;3.80;;;22.80;82.30;22.50;101186;;;;570128;248;23056;-82
2023/06/05 04:14:39;;;;;;;10.90;4.40;;;23.40;80.50;23.10;101184;;;;570445;248;23098;-82
2023/06/05 04:17:06;;;;;;;11.60;4.27;;;24.00;75.30;23.70;101191;;;;570500;248;23066;-81
2023/06/05 04:19:35;;;;;;;13.20;4.00;;;24.60;72.00;24.10;101201;;;;570581;248;23110;-81
2023/06/05 04:22:02;;;;;;;11.20;4.60;;;25.00;69.20;24.60;101198;;;;570450;248;23066;-80
2023/06/05 04:24:30;;;;;;;8.98;4.68;;;25.60;67.60;25.20;101201;;;;565187;248;46181;-81
2023/06/05 04:27:02;;;;;;;5.62;3.83;;;26.10;63.80;25.60;101202;;;;570025;248;23094;-81
2023/06/05 04:29:26;;;;;;;6.07;3.97;;;26.60;62.10;26.00;101203;;;;570060;248;23061;-81
2023/06/05 04:31:54;;;;;;;9.60;5.10;;;27.10;60.60;26.60;101200;;;;570114;248;23065;-81
2023/06/05 04:34:22;;;;;;;12.40;3.92;;;27.70;59.40;27.20;101201;;;;570284;248;24110;-81
2023/06/05 04:36:53;;;;;;;7.05;4.00;;;28.20;57.80;27.70;101207;;;;570192;248;24159;-82
2023/06/05 04:39:21;;;;;;;17.27;5.00;;;29.50;55.40;28.40;101206;;;;569877;245;23133;-80
2023/06/05 04:41:47;;;;;;;28.77;5.75;;;29.40;55.30;29.10;101203;;;;569480;247;24066;-82
2023/06/05 04:44:17;;;;;;;23.15;6.93;;;30.30;54.20;29.80;101199;;;;568865;247;24080;-84
2023/06/05 04:46:43;;;;;;;29.00;5.40;;;31.10;52.60;30.50;101200;;;;571159;247;23072;-82
2023/06/05 04:49:13;;;;;;;39.47;5.70;;;31.80;50.90;31.10;101211;;;;571007;247;23077;-81
2023/06/05 04:51:44;;;;;;;40.65;7.28;;;32.40;49.60;31.80;101215;;;;570595;247;23053;-81
2023/06/05 04:54:09;;;;;;;54.22;7.10;;;33.20;48.40;32.30;101213;;;;570470;247;23135;-80
2023/06/05 04:56:39;;;;;;;5.72;2.50;;;33.70;46.90;33.00;101206;;;;570390;247;23112;-82
2023/06/05 04:59:07;;;;;;;8.13;2.47;;;34.30;45.00;33.60;101208;;;;579108;244;23062;-81
2023/06/05 05:01:33;;;;;;;12.02;2.53;;;34.90;43.00;33.50;101212;;;;569980;248;23076;-82
2023/06/05 05:04:01;;;;;;;9.10;3.10;;;35.30;42.50;33.80;101223;;;;570412;248;23087;-82
2023/06/05 05:06:29;;;;;;;7.55;2.78;;;35.20;42.40;34.30;101220;;;;570326;248;23085;-83
2023/06/05 05:08:57;;;;;;;5.35;1.25;;;35.60;41.70;34.50;101223;;;;570670;248;23109;-82
2023/06/05 05:11:26;;;;;;;1.33;1.20;;;35.90;41.50;34.80;101228;;;;570388;248;24076;-82
2023/06/05 05:13:53;;;;;;;2.70;1.30;;;36.10;41.10;34.80;101228;;;;570280;248;23081;-81
2023/06/05 05:16:21;;;;;;;2.10;1.35;;;36.20;40.20;35.60;101233;;;;570550;248;23109;-82
2023/06/05 05:18:49;;;;;;;4.35;1.30;;;36.60;39.40;35.60;101225;;;;570488;248;23093;-82
2023/06/05 05:21:19;;;;;;;4.87;1.30;;;36.80;39.60;35.70;101234;;;;570257;248;23057;-81
2023/06/05 05:23:44;;;;;;;3.35;1.62;;;37.00;38.90;35.80;101242;;;;570196;248;23081;-82
2023/06/05 05:26:12;;;;;;;2.42;1.35;;;37.00;38.70;35.90;101231;;;;569928;248;23108;-82
2023/06/05 05:28:40;;;;;;;1.27;1.25;;;37.00;38.70;36.00;101237;;;;570077;248;23081;-82
2023/06/05 05:31:08;;;;;;;3.22;1.10;;;37.20;39.10;36.40;101244;;;;570021;248;23116;-82
2023/06/05 05:33:37;;;;;;;1.00;0.88;;;37.70;37.50;36.80;101242;;;;570183;248;23081;-80
2023/06/05 05:36:05;;;;;;;3.70;1.40;;;37.70;37.80;36.50;101239;;;;570070;248;24179;-80
2023/06/05 05:38:34;;;;;;;3.87;1.10;;;37.90;37.00;36.80;101248;;;;570409;248;23076;-82
2023/06/05 05:41:03;;;;;;;1.25;0.90;;;37.90;37.00;36.80;101246;;;;568120;248;23067;-81
2023/06/05 05:43:31;;;;;;;3.92;1.75;;;37.90;37.00;37.20;101247;;;;569966;248;23088;-81
2023/06/05 05:45:59;;;;;;;1.77;1.33;;;38.20;37.30;37.90;101254;;;;570136;248;23124;-82
2023/06/05 05:48:27;;;;;;;1.77;1.20;;;39.30;36.70;38.40;101255;;;;570508;248;24120;-83
2023/06/05 05:50:55;;;;;;;3.05;1.50;;;39.20;36.60;39.10;101250;;;;570480;246;23139;-82
2023/06/05 05:53:23;;;;;;;5.60;1.00;;;39.80;36.30;39.70;101258;;;;571860;247;24098;-81
2023/06/05 05:55:51;;;;;;;5.32;1.60;;;40.50;35.40;40.20;101261;;;;570956;247;23098;-80
2023/06/05 05:58:19;;;;;;;2.67;1.70;;;40.90;34.90;40.60;101258;;;;570872;247;23079;-81
2023/06/05 06:00:47;;;;;;;1.42;1.33;;;41.30;34.60;41.00;101261;;;;568367;247;23046;-81
2023/06/05 06:03:15;;;;;;;3.70;1.20;;;41.80;34.40;41.30;101261;;;;570662;247;23062;-81
2023/06/05 06:05:44;;;;;;;1.50;1.20;;;42.00;32.60;41.50;101256;;;;570526;247;23065;-81
2023/06/05 06:08:11;;;;;;;4.75;1.23;;;42.20;33.10;41.90;101258;;;;570944;247;23098;-80
2023/06/05 06:10:38;;;;;;;1.70;1.23;;;42.60;32.70;42.30;101255;;;;570378;248;23107;-80
2023/06/05 06:13:07;;;;;;;1.20;1.10;;;43.20;31.50;42.40;101264;;;;570267;248;23112;-81
2023/06/05 06:15:38;;;;;;;4.82;1.35;;;42.90;32.20;42.00;101258;;;;570396;248;23137;-82
2023/06/05 06:18:04;;;;;;;2.62;1.02;;;42.90;31.50;42.10;101255;;;;570505;248;23058;-82
2023/06/05 06:20:33;;;;;;;2.03;1.30;;;42.80;31.70;42.60;101259;;;;570774;248;23062;-80
2023/06/05 06:23:00;;;;;;;3.05;1.30;;;43.10;31.40;43.10;101263;;;;570644;248;23084;-81
2023/06/05 06:25:28;;;;;;;4.07;1.23;;;43.60;30.90;42.60;101266;;;;579256;248;23140;-81
2023/06/05 06:27:59;;;;;;;2.58;1.40;;;43.40;31.30;42.50;101267;;;;565230;248;35110;-80
2023/06/05 06:30:23;;;;;;;7.37;1.58;;;43.20;31.20;42.40;101273;;;;569808;248;23070;-82
2023/06/05 06:32:52;;;;;;;2.62;1.45;;;43.10;31.10;42.80;101278;;;;570105;248;23073;-80
2023/06/05 06:35:20;;;;;;;1.80;1.25;;;43.20;31.20;43.10;101278;;;;570098;248;23105;-81
2023/06/05 06:37:47;;;;;;;5.82;1.10;;;43.60;31.70;43.80;101285;;;;570223;248;23136;-82
2023/06/05 06:40:15;;;;;;;4.87;1.42;;;44.20;31.20;44.20;101281;;;;570068;248;23113;-81
2023/06/05 06:42:44;;;;;;;4.03;1.27;;;44.90;30.40;44.50;101289;;;;569916;248;23057;-81
2023/06/05 06:45:12;;;;;;;2.33;1.10;;;45.40;30.00;45.20;101284;;;;570178;248;23183;-83
2023/06/05 06:47:42;;;;;;;3.72;1.30;;;45.80;29.90;45.30;101280;;;;570472;248;23086;-80
2023/06/05 06:50:09;;;;;;;2.27;1.30;;;45.80;30.40;45.50;101278;;;;565636;248;46188;-83
2023/06/05 06:52:37;;;;;;;1.45;1.35;;;46.00;30.10;45.40;101287;;;;570422;248;23062;-80
2023/06/05 06:55:05;;;;;;;5.32;1.98;;;46.10;29.70;45.30;101290;;;;570482;248;23108;-81
2023/06/05 06:57:33;;;;;;;2.95;1.45;;;46.00;29.30;45.50;101288;;;;568607;248;23075;-82
2023/06/05 07:00:01;;;;;;;1.20;1.20;;;46.00;28.70;45.40;101280;;;;570117;248;23104;-83
2023/06/05 07:02:29;;;;;;;6.03;1.20;;;46.00;29.00;45.30;101287;;;;570196;246;23084;-82
2023/06/05 07:04:57;;;;;;;3.22;1.50;;;45.90;28.40;45.30;101293;;;;571413;247;23062;-81
2023/06/05 07:07:25;;;;;;;1.60;1.50;;;45.90;28.20;45.70;101292;;;;571103;247;23084;-81
2023/06/05 07:09:52;;;;;;;3.80;1.33;;;46.00;28.30;45.80;101294;;;;570893;247;23171;-82
2023/06/05 07:12:22;;;;;;;3.40;1.40;;;46.20;29.00;46.10;101293;;;;570567;247;23124;-83
2023/06/05 07:14:49;;;;;;;1.60;1.12;;;46.20;28.10;45.70;101293;;;;570474;247;24133;-82
2023/06/05 07:17:17;;;;;;;5.68;1.15;;;46.20;28.10;45.70;101294;;;;570841;247;23042;-82
2023/06/05 07:19:45;;;;;;;2.60;1.37;;;46.20;28.40;45.90;101294;;;;570885;247;23054;-81
2023/06/05 07:22:13;;;;;;;1.20;1.12;;;46.40;28.10;46.20;101292;;;;570728;248;23096;-81
2023/06/05 07:24:41;;;;;;;1.37;1.27;;;46.50;27.50;45.90;101294;;;;570602;248;23050;-82
2023/06/05 07:27:12;;;;;;;1.10;1.10;;;46.50;27.60;46.30;101298;;;;570592;248;23073;-82
2023/06/05 07:29:36;;;;;;;4.10;1.52;;;46.60;27.40;46.60;101287;;;;569692;248;24121;-79
2023/06/05 07:32:08;;;;;;;8.38;1.60;;;46.90;27.30;47.10;101290;;;;570407;248;23049;-80
2023/06/05 07:34:34;;;;;;;3.90;1.65;;;47.80;27.40;47.60;101291;;;;567770;248;23097;-81
2023/06/05 07:37:02;;;;;;;5.80;1.60;;;48.10;28.00;47.90;101292;;;;570389;248;23109;-79
2023/06/05 07:39:30;;;;;;;3.03;1.58;;;47.80;27.70;47.20;101298;;;;570212;248;23109;-81
2023/06/05 07:41:58;;;;;;;1.75;1.50;;;47.80;27.70;46.50;101299;;;;569968;248;23070;-83
2023/06/05 07:44:26;;;;;;;4.78;1.67;;;47.20;27.40;45.90;101296;;;;570135;248;23075;-83
2023/06/05 07:46:54;;;;;;;5.65;1.70;;;46.60;28.10;46.30;101297;;;;570001;248;23064;-82
2023/06/05 07:49:23;;;;;;;2.95;2.05;;;46.60;28.10;46.60;101295;;;;570358;248;23054;-83
2023/06/05 07:51:50;;;;;;;2.37;1.62;;;46.90;27.40;46.00;101295;;;;570451;248;23063;-82
2023/06/05 07:54:19;;;;;;;2.83;1.40;;;46.60;27.80;46.30;101289;;;;568305;248;23042;-79
2023/06/05 07:56:48;;;;;;;3.25;1.55;;;46.70;27.80;45.70;101296;;;;570424;248;24072;-81
2023/06/05 07:59:14;;;;;;;3.12;1.80;;;46.30;28.00;45.70;101298;;;;567817;248;23129;-79
2023/06/05 08:01:42;;;;;;;5.07;1.30;;;46.20;28.30;46.20;101296;;;;570515;248;23088;-80
2023/06/05 08:04:13;;;;;;;16.35;2.95;;;46.40;28.30;46.80;101291;;;;570337;248;23067;-80
2023/06/05 08:06:41;;;;;;;27.58;4.00;;;47.60;28.90;47.60;101294;;;;570279;248;23109;-80
2023/06/05 08:09:10;;;;;;;12.32;2.20;;;48.30;28.30;48.30;101296;;;;570353;248;23066;-80
2023/06/05 08:11:38;;;;;;;4.10;1.60;;;48.30;28.30;48.70;101297;;;;570366;248;23099;-83
2023/06/05 08:14:06;;;;;;;6.18;1.52;;;48.90;27.80;48.10;101299;;;;579175;246;23087;-80
2023/06/05 08:16:34;;;;;;;3.62;1.85;;;48.80;27.40;47.60;101298;;;;571857;247;23124;-82
2023/06/05 08:19:01;;;;;;;1.83;1.73;;;48.50;27.70;48.00;101296;;;;579813;247;23165;-81
2023/06/05 08:21:30;;;;;;;3.03;2.00;;;48.60;27.80;48.50;101296;;;;568786;247;23077;-80
2023/06/05 08:24:00;;;;;;;4.82;2.10;;;48.90;27.50;48.30;101296;;;;570877;247;23100;-80
2023/06/05 08:26:25;;;;;;;6.40;1.75;;;48.90;27.40;48.30;101296;;;;570205;247;23113;-79
2023/06/05 08:28:53;;;;;;;4.03;2.10;;;48.90;27.30;48.40;101300;;;;570468;247;23041;-81
2023/06/05 08:31:21;;;;;;;1.70;1.60;;;49.00;27.40;48.50;101296;;;;570543;247;23133;-79
2023/06/05 08:33:49;;;;;;;3.67;1.85;;;49.00;27.50;48.80;101303;;;;570284;248;23110;-81
2023/06/05 08:36:17;;;;;;;6.25;1.92;;;49.30;27.70;49.00;101302;;;;570317;248;23107;-82
2023/06/05 08:38:45;;;;;;;4.55;1.83;;;49.50;27.10;49.30;101300;;;;570314;248;23187;-81
2023/06/05 08:41:13;;;;;;;8.05;3.53;;;49.70;27.10;49.70;101299;;;;570226;248;23069;-80
2023/06/05 08:43:42;;;;;;;2.60;2.37;;;50.40;26.90;49.70;101295;;;;570256;248;23093;-82
2023/06/05 08:46:09;;;;;;;4.15;1.70;;;50.30;26.80;49.70;101302;;;;570176;248;23120;-81
2023/06/05 08:48:43;;;;;;;3.50;2.08;;;50.50;27.10;48.00;101302;;;;579321;247;23069;-80
2023/06/05 08:51:12;;;;;;;2.75;1.77;;;49.60;27.20;46.60;101311;;;;570323;248;23086;-79
2023/06/05 08:53:39;;;;;;;8.85;1.87;;;48.50;27.90;46.50;101307;;;;568260;248;23107;-81
2023/06/05 08:56:08;;;;;;;16.05;3.17;;;47.90;29.10;46.90;101298;;;;579018;248;23069;-80
2023/06/05 08:58:35;;;;;;;3.33;1.60;;;47.90;30.00;46.90;101305;;;;568003;248;23107;-80
2023/06/05 09:01:03;;;;;;;18.85;3.28;;;47.90;30.00;46.70;101298;;;;569881;248;23153;-82
2023/06/05 09:03:32;;;;;;;10.18;2.58;;;47.60;30.30;46.60;101296;;;;569855;248;23386;-81
2023/06/05 09:06:00;;;;;;;8.20;2.10;;;47.60;30.30;46.60;101301;;;;564982;248;35208;-80
2023/06/05 09:08:33;;;;;;;7.35;1.90;;;47.70;30.00;46.70;101296;;;;569862;248;23067;-79
2023/06/05 09:11:29;;;;;;;8.38;1.65;;;47.60;29.90;46.30;101299;;;;567757;248;23080;-80
2023/06/05 09:13:57;;;;;;;6.00;2.28;;;47.50;29.80;46.30;101304;;;;570334;248;23093;-79
2023/06/05 09:16:43;;;;;;;3.33;1.80;;;47.30;29.70;46.40;101306;;;;567181;247;23109;-82
2023/06/05 09:19:08;;;;;;;11.98;2.47;;;47.50;29.70;46.20;101306;;;;570158;248;23050;-79
2023/06/05 09:21:36;;;;;;;4.22;1.85;;;47.20;29.80;46.00;101303;;;;570081;248;23099;-81
2023/06/05 09:24:14;;;;;;;7.43;2.70;;;47.40;29.60;46.40;101304;;;;570001;248;24161;-81
2023/06/05 09:26:59;;;;;;;2.78;1.85;;;47.40;29.60;46.60;101307;;;;569310;247;24112;-81
2023/06/05 09:29:33;;;;;;;7.00;2.25;;;47.70;28.90;46.10;101301;;;;571499;247;24168;-82
2023/06/05 09:32:08;;;;;;;11.80;2.20;;;47.10;29.50;45.50;101305;;;;568071;247;23066;-81
2023/06/05 09:34:36;;;;;;;6.57;1.95;;;47.10;29.00;43.90;101290;;;;570823;247;23109;-81
2023/06/05 09:37:04;;;;;;;5.50;1.70;;;46.10;29.30;42.90;101302;;;;568244;247;24108;-81
2023/06/05 09:39:32;;;;;;;6.55;1.85;;;45.00;29.80;43.00;101306;;;;567972;247;23090;-82
2023/06/05 09:42:00;;;;;;;9.27;4.40;;;44.80;30.00;43.20;101303;;;;568422;247;23077;-81
2023/06/05 09:44:27;;;;;;;33.83;5.68;;;44.70;30.20;43.80;101294;;;;570300;248;23089;-80
2023/06/05 09:47:08;;;;;;;2.45;1.62;;;45.10;30.00;44.40;101297;;;;570363;248;23061;-79
2023/06/05 09:49:41;;;;;;;9.13;2.22;;;45.60;29.50;44.20;101289;;;;570659;248;23072;-79
2023/06/05 09:52:12;;;;;;;20.50;3.47;;;45.90;29.40;44.80;101297;;;;569153;248;23062;-83
2023/06/05 09:54:39;;;;;;;5.37;1.67;;;46.30;29.20;45.10;101291;;;;568364;248;23085;-80
2023/06/05 09:57:11;;;;;;;7.68;1.85;;;46.80;28.90;45.10;101288;;;;568586;243;23089;-82
2023/06/05 09:59:39;;;;;;;12.02;2.20;;;47.10;28.80;45.10;101287;;;;568423;248;23082;-82
2023/06/05 10:02:05;;;;;;;1.58;1.48;;;47.10;28.90;45.10;101278;;;;568178;248;23109;-82
2023/06/05 10:04:31;;;;;;;4.18;1.70;;;47.10;28.60;44.40;101289;;;;569965;248;23075;-81
2023/06/05 10:07:00;;;;;;;5.37;1.52;;;46.10;29.00;44.10;101279;;;;569851;248;23130;-82
2023/06/05 10:09:28;;;;;;;9.45;2.47;;;45.90;29.10;44.30;101282;;;;570277;248;23172;-82
2023/06/05 10:11:57;;;;;;;9.13;2.20;;;45.80;28.90;44.40;101288;;;;570290;248;24215;-82
2023/06/05 10:14:26;;;;;;;4.95;1.58;;;45.20;29.00;43.40;101285;;;;570162;248;23061;-84
2023/06/05 10:16:54;;;;;;;1.67;1.55;;;44.40;29.40;42.60;101277;;;;570047;248;23067;-82
2023/06/05 10:19:26;;;;;;;2.47;1.58;;;44.40;29.80;41.80;101272;;;;578840;247;23153;-82
2023/06/05 10:21:54;;;;;;;9.75;1.92;;;43.70;29.50;40.80;101269;;;;570059;248;23060;-82
2023/06/05 10:24:24;;;;;;;8.02;2.05;;;42.70;29.90;40.40;101267;;;;569971;248;23130;-81
2023/06/05 10:27:10;;;;;;;3.47;1.67;;;42.20;30.20;39.30;101273;;;;570457;248;23061;-81
2023/06/05 10:29:53;;;;;;;1.73;1.60;;;41.20;30.60;38.20;101265;;;;568840;248;23087;-81
2023/06/05 10:32:29;;;;;;;2.40;1.40;;;40.10;31.50;37.20;101266;;;;570507;248;23084;-83
2023/06/05 10:35:06;;;;;;;4.95;1.48;;;39.10;32.40;36.70;101257;;;;568924;248;24097;-82
2023/06/05 10:38:09;;;;;;;5.62;1.90;;;38.40;33.20;35.90;101258;;;;570038;246;23070;-82
2023/06/05 10:40:35;;;;;;;6.68;1.65;;;37.50;33.60;34.20;101253;;;;571045;247;23066;-81
2023/06/05 10:43:31;;;;;;;5.53;1.40;;;33.90;36.40;32.50;101255;;;;570934;247;23057;-81
2023/06/05 10:46:02;;;;;;;9.15;1.42;;;32.10;38.10;31.00;101255;;;;568912;247;24069;-81
2023/06/05 10:49:08;;;;;;;4.90;1.50;;;31.90;38.60;29.80;101249;;;;570530;247;23068;-81
2023/06/05 10:51:43;;;;;;;5.37;1.30;;;30.70;39.80;28.30;101247;;;;570952;247;23075;-79
2023/06/05 10:54:24;;;;;;;3.72;1.60;;;29.30;41.50;26.80;101243;;;;570611;247;23103;-83
2023/06/05 10:57:02;;;;;;;9.97;1.97;;;27.80;43.30;25.60;101235;;;;568192;248;23077;-80
2023/06/05 10:59:35;;;;;;;5.43;1.40;;;26.60;45.10;24.90;101231;;;;568706;248;23069;-80
2023/06/05 11:02:06;;;;;;;4.40;1.93;;;25.60;46.30;24.40;101226;;;;570242;248;24182;-80
2023/06/05 11:04:49;;;;;;;2.13;1.87;;;25.00;47.40;23.90;101229;;;;568955;248;23083;-82
2023/06/05 11:07:20;;;;;;;2.00;0.90;;;24.40;48.20;23.40;101224;;;;568893;248;24108;-80
2023/06/05 11:10:06;;;;;;;8.40;1.77;;;24.00;48.90;23.10;101220;;;;568554;248;23073;-82
2023/06/05 11:12:40;;;;;;;3.23;1.50;;;23.60;49.90;22.70;101221;;;;569389;248;24044;-81
2023/06/05 11:15:11;;;;;;;7.93;1.63;;;22.80;51.20;22.30;101215;;;;568796;248;23064;-81
2023/06/05 11:17:42;;;;;;;7.20;1.67;;;22.80;51.10;22.00;101211;;;;570373;248;24178;-80
2023/06/05 11:20:26;;;;;;;10.47;1.40;;;22.50;51.50;21.80;101209;;;;568350;248;24045;-79
2023/06/05 11:22:53;;;;;;;4.90;1.30;;;22.30;51.50;21.50;101213;;;;569034;248;23074;-79